Cascade, Idaho
Current Conditions -  °F | °C
As of 2:41 AM on Thursday 18 Dec 2014 (Local Time) from KMYL Reporting Station
Overcast Overcast  
Wind Chill: 31°   Ceiling: 400
Heat Index: 31°   Visibility: 10mi
Dew Point: 30°   Wind: 3mph
Humidity: 96%   Direction: 320°NW
Pressure: 29.98"   Gusts: NA
Location:  44.52°N, 116.04°W
Report Text: KMYL 180941Z AUTO 32003KT 10SM BKN004 OVC018 M01/M01 A2998 RMK AO2 T10061011
Loading
Personal Weather Stations






























Interactive Weather Map New forecast layout! Learn more

10-Day Weather Forecast

Advertisements
Track Severe Weather on mobile